sensor_id;sensor_type;location;lat;lon;timestamp;pressure;altitude;pressure_sealevel;temperature
67515;BMP280;60646;55.802;37.032;2022-08-19T00:01:37;100348.88;;;24.72
67515;BMP280;60646;55.802;37.032;2022-08-19T00:04:06;100356.97;;;24.79
67515;BMP280;60646;55.802;37.032;2022-08-19T00:06:33;100336.22;;;24.67
67515;BMP280;60646;55.802;37.032;2022-08-19T00:08:59;100345.19;;;24.77
67515;BMP280;60646;55.802;37.032;2022-08-19T00:11:26;100355.28;;;24.84
67515;BMP280;60646;55.802;37.032;2022-08-19T00:13:54;100353.09;;;24.82
67515;BMP280;60646;55.802;37.032;2022-08-19T00:16:21;100353.50;;;24.79
67515;BMP280;60646;55.802;37.032;2022-08-19T00:18:47;100357.16;;;24.81
67515;BMP280;60646;55.802;37.032;2022-08-19T00:21:13;100355.16;;;24.82
67515;BMP280;60646;55.802;37.032;2022-08-19T00:23:40;100371.56;;;24.91
67515;BMP280;60646;55.802;37.032;2022-08-19T00:26:06;100378.03;;;24.96
67515;BMP280;60646;55.802;37.032;2022-08-19T00:28:33;100370.97;;;24.93
67515;BMP280;60646;55.802;37.032;2022-08-19T00:31:05;100348.25;;;24.90
67515;BMP280;60646;55.802;37.032;2022-08-19T00:33:32;100366.28;;;25.03
67515;BMP280;60646;55.802;37.032;2022-08-19T00:35:59;100360.53;;;24.99
67515;BMP280;60646;55.802;37.032;2022-08-19T00:38:25;100350.88;;;24.98
67515;BMP280;60646;55.802;37.032;2022-08-19T00:40:51;100367.31;;;25.07
67515;BMP280;60646;55.802;37.032;2022-08-19T00:43:21;100366.41;;;25.05
67515;BMP280;60646;55.802;37.032;2022-08-19T00:45:47;100364.84;;;25.02
67515;BMP280;60646;55.802;37.032;2022-08-19T00:48:14;100364.84;;;25.02
67515;BMP280;60646;55.802;37.032;2022-08-19T00:50:41;100376.25;;;25.08
67515;BMP280;60646;55.802;37.032;2022-08-19T00:53:10;100396.53;;;25.14
67515;BMP280;60646;55.802;37.032;2022-08-19T00:55:37;100382.25;;;25.06
67515;BMP280;60646;55.802;37.032;2022-08-19T00:58:08;100380.72;;;25.13
67515;BMP280;60646;55.802;37.032;2022-08-19T01:00:36;100376.47;;;25.02
67515;BMP280;60646;55.802;37.032;2022-08-19T01:03:05;100393.41;;;25.18
67515;BMP280;60646;55.802;37.032;2022-08-19T01:05:31;100382.69;;;25.03
67515;BMP280;60646;55.802;37.032;2022-08-19T01:07:59;100376.78;;;25.06
67515;BMP280;60646;55.802;37.032;2022-08-19T01:10:28;100381.09;;;25.09
67515;BMP280;60646;55.802;37.032;2022-08-19T01:12:55;100388.34;;;25.14
67515;BMP280;60646;55.802;37.032;2022-08-19T01:15:28;100365.84;;;25.06
67515;BMP280;60646;55.802;37.032;2022-08-19T01:17:57;100366.28;;;25.03
67515;BMP280;60646;55.802;37.032;2022-08-19T01:20:24;100380.66;;;25.03
67515;BMP280;60646;55.802;37.032;2022-08-19T01:22:57;100389.31;;;25.09
67515;BMP280;60646;55.802;37.032;2022-08-19T01:25:29;100378.66;;;25.04
67515;BMP280;60646;55.802;37.032;2022-08-19T01:27:56;100388.97;;;24.96
67515;BMP280;60646;55.802;37.032;2022-08-19T01:30:29;100386.72;;;25.02
67515;BMP280;60646;55.802;37.032;2022-08-19T01:32:56;100409.03;;;24.98
67515;BMP280;60646;55.802;37.032;2022-08-19T01:35:24;100387.97;;;24.91
67515;BMP280;60646;55.802;37.032;2022-08-19T01:37:54;100405.72;;;25.00
67515;BMP280;60646;55.802;37.032;2022-08-19T01:40:24;100390.69;;;24.91
67515;BMP280;60646;55.802;37.032;2022-08-19T01:42:51;100393.53;;;24.84
67515;BMP280;60646;55.802;37.032;2022-08-19T01:45:19;100400.47;;;24.85
67515;BMP280;60646;55.802;37.032;2022-08-19T01:47:45;100403.75;;;24.83
67515;BMP280;60646;55.802;37.032;2022-08-19T01:50:11;100418.03;;;24.91
67515;BMP280;60646;55.802;37.032;2022-08-19T01:52:40;100411.41;;;24.85
67515;BMP280;60646;55.802;37.032;2022-08-19T01:55:09;100407.47;;;24.78
67515;BMP280;60646;55.802;37.032;2022-08-19T01:57:35;100408.19;;;24.79
67515;BMP280;60646;55.802;37.032;2022-08-19T02:00:05;100420.88;;;24.84
67515;BMP280;60646;55.802;37.032;2022-08-19T02:02:37;100421.84;;;24.79
67515;BMP280;60646;55.802;37.032;2022-08-19T02:05:04;100421.00;;;24.76
67515;BMP280;60646;55.802;37.032;2022-08-19T02:07:30;100405.09;;;24.65
67515;BMP280;60646;55.802;37.032;2022-08-19T02:09:56;100417.16;;;24.62
67515;BMP280;60646;55.802;37.032;2022-08-19T02:12:23;100422.63;;;24.62
67515;BMP280;60646;55.802;37.032;2022-08-19T02:14:48;100413.97;;;24.56
67515;BMP280;60646;55.802;37.032;2022-08-19T02:17:14;100415.25;;;24.55
67515;BMP280;60646;55.802;37.032;2022-08-19T02:19:58;100424.63;;;24.62
67515;BMP280;60646;55.802;37.032;2022-08-19T02:22:24;100421.31;;;24.54
67515;BMP280;60646;55.802;37.032;2022-08-19T02:24:52;100415.66;;;24.52
67515;BMP280;60646;55.802;37.032;2022-08-19T02:27:18;100432.56;;;24.58
67515;BMP280;60646;55.802;37.032;2022-08-19T02:29:46;100425.78;;;24.59
67515;BMP280;60646;55.802;37.032;2022-08-19T02:32:12;100411.19;;;24.46
67515;BMP280;60646;55.802;37.032;2022-08-19T02:34:39;100422.44;;;24.51
67515;BMP280;60646;55.802;37.032;2022-08-19T02:37:05;100410.97;;;24.35
67515;BMP280;60646;55.802;37.032;2022-08-19T02:39:31;100420.34;;;24.41
67515;BMP280;60646;55.802;37.032;2022-08-19T02:41:56;100407.03;;;24.28
67515;BMP280;60646;55.802;37.032;2022-08-19T02:44:24;100422.31;;;24.31
67515;BMP280;60646;55.802;37.032;2022-08-19T02:46:50;100415.50;;;24.23
67515;BMP280;60646;55.802;37.032;2022-08-19T02:49:16;100421.97;;;24.27
67515;BMP280;60646;55.802;37.032;2022-08-19T02:51:44;100410.31;;;24.27
67515;BMP280;60646;55.802;37.032;2022-08-19T02:54:11;100423.72;;;24.32
67515;BMP280;60646;55.802;37.032;2022-08-19T02:56:39;100403.84;;;24.22
67515;BMP280;60646;55.802;37.032;2022-08-19T02:59:05;100399.78;;;24.23
67515;BMP280;60646;55.802;37.032;2022-08-19T03:01:35;100413.06;;;24.27
67515;BMP280;60646;55.802;37.032;2022-08-19T03:04:05;100419.56;;;24.31
67515;BMP280;60646;55.802;37.032;2022-08-19T03:06:31;100404.56;;;24.23
67515;BMP280;60646;55.802;37.032;2022-08-19T03:08:57;100428.16;;;24.28
67515;BMP280;60646;55.802;37.032;2022-08-19T03:11:26;100441.00;;;24.35
67515;BMP280;60646;55.802;37.032;2022-08-19T03:13:52;100433.78;;;24.30
67515;BMP280;60646;55.802;37.032;2022-08-19T03:16:20;100440.47;;;24.36
67515;BMP280;60646;55.802;37.032;2022-08-19T03:18:47;100451.84;;;24.42
67515;BMP280;60646;55.802;37.032;2022-08-19T03:21:20;100424.06;;;24.36
67515;BMP280;60646;55.802;37.032;2022-08-19T03:23:47;100444.53;;;24.45
67515;BMP280;60646;55.802;37.032;2022-08-19T03:26:13;100436.72;;;24.41
67515;BMP280;60646;55.802;37.032;2022-08-19T03:28:44;100440.59;;;24.38
67515;BMP280;60646;55.802;37.032;2022-08-19T03:31:12;100440.91;;;24.42
67515;BMP280;60646;55.802;37.032;2022-08-19T03:33:40;100429.84;;;24.40
67515;BMP280;60646;55.802;37.032;2022-08-19T03:38:42;100450.22;;;24.57
67515;BMP280;60646;55.802;37.032;2022-08-19T03:41:11;100444.59;;;24.55
67515;BMP280;60646;55.802;37.032;2022-08-19T03:43:39;100448.63;;;24.54
67515;BMP280;60646;55.802;37.032;2022-08-19T03:46:17;100443.06;;;24.61
67515;BMP280;60646;55.802;37.032;2022-08-19T03:48:46;100451.50;;;24.56
67515;BMP280;60646;55.802;37.032;2022-08-19T03:51:18;100447.50;;;24.57
67515;BMP280;60646;55.802;37.032;2022-08-19T03:53:46;100456.97;;;24.56
67515;BMP280;60646;55.802;37.032;2022-08-19T03:56:12;100458.41;;;24.57
67515;BMP280;60646;55.802;37.032;2022-08-19T03:58:39;100445.72;;;24.52
67515;BMP280;60646;55.802;37.032;2022-08-19T04:01:10;100434.78;;;24.52
67515;BMP280;60646;55.802;37.032;2022-08-19T04:03:36;100452.22;;;24.56
67515;BMP280;60646;55.802;37.032;2022-08-19T04:06:29;100451.00;;;24.67
67515;BMP280;60646;55.802;37.032;2022-08-19T04:08:57;100448.38;;;24.59
67515;BMP280;60646;55.802;37.032;2022-08-19T04:11:36;100454.69;;;24.62
67515;BMP280;60646;55.802;37.032;2022-08-19T04:14:05;100438.97;;;24.53
67515;BMP280;60646;55.802;37.032;2022-08-19T04:16:31;100440.25;;;24.52
67515;BMP280;60646;55.802;37.032;2022-08-19T04:19:00;100447.19;;;24.53
67515;BMP280;60646;55.802;37.032;2022-08-19T04:21:27;100460.16;;;24.62
67515;BMP280;60646;55.802;37.032;2022-08-19T04:23:54;100446.22;;;24.58
67515;BMP280;60646;55.802;37.032;2022-08-19T04:30:24;100443.78;;;24.62
67515;BMP280;60646;55.802;37.032;2022-08-19T04:32:49;100449.25;;;24.62
67515;BMP280;60646;55.802;37.032;2022-08-19T04:35:15;100441.34;;;24.66
67515;BMP280;60646;55.802;37.032;2022-08-19T04:37:41;100446.09;;;24.65
67515;BMP280;60646;55.802;37.032;2022-08-19T04:40:07;100441.94;;;24.64
67515;BMP280;60646;55.802;37.032;2022-08-19T04:42:56;100450.91;;;24.74
67515;BMP280;60646;55.802;37.032;2022-08-19T04:45:22;100447.44;;;24.74
67515;BMP280;60646;55.802;37.032;2022-08-19T04:47:48;100454.53;;;24.77
67515;BMP280;60646;55.802;37.032;2022-08-19T04:50:14;100447.44;;;24.74
67515;BMP280;60646;55.802;37.032;2022-08-19T04:52:40;100465.78;;;24.81
67515;BMP280;60646;55.802;37.032;2022-08-19T04:55:10;100474.03;;;24.90
67515;BMP280;60646;55.802;37.032;2022-08-19T04:58:01;100471.19;;;24.98
67515;BMP280;60646;55.802;37.032;2022-08-19T05:00:45;100478.66;;;24.97
67515;BMP280;60646;55.802;37.032;2022-08-19T05:03:11;100477.13;;;25.04
67515;BMP280;60646;55.802;37.032;2022-08-19T05:05:40;100480.16;;;25.08
67515;BMP280;60646;55.802;37.032;2022-08-19T05:08:06;100484.03;;;25.05
67515;BMP280;60646;55.802;37.032;2022-08-19T05:10:36;100465.75;;;25.07
67515;BMP280;60646;55.802;37.032;2022-08-19T05:13:08;100479.06;;;25.20
67515;BMP280;60646;55.802;37.032;2022-08-19T05:15:57;100482.97;;;25.27
67515;BMP280;60646;55.802;37.032;2022-08-19T05:18:23;100466.09;;;25.21
67515;BMP280;60646;55.802;37.032;2022-08-19T05:21:10;100468.16;;;25.30
67515;BMP280;60646;55.802;37.032;2022-08-19T05:23:54;100450.84;;;25.27
67515;BMP280;60646;55.802;37.032;2022-08-19T05:26:20;100469.94;;;25.45
67515;BMP280;60646;55.802;37.032;2022-08-19T05:28:46;100456.25;;;25.45
67515;BMP280;60646;55.802;37.032;2022-08-19T05:31:12;100479.91;;;25.59
67515;BMP280;60646;55.802;37.032;2022-08-19T05:33:38;100459.44;;;25.60
67515;BMP280;60646;55.802;37.032;2022-08-19T05:36:05;100479.66;;;25.74
67515;BMP280;60646;55.802;37.032;2022-08-19T05:38:33;100470.44;;;25.79
67515;BMP280;60646;55.802;37.032;2022-08-19T05:40:59;100467.13;;;25.81
67515;BMP280;60646;55.802;37.032;2022-08-19T05:43:25;100458.19;;;25.90
67515;BMP280;60646;55.802;37.032;2022-08-19T05:45:50;100445.22;;;25.90
67515;BMP280;60646;55.802;37.032;2022-08-19T05:48:16;100454.31;;;26.02
67515;BMP280;60646;55.802;37.032;2022-08-19T05:50:46;100472.78;;;26.21
67515;BMP280;60646;55.802;37.032;2022-08-19T05:53:12;100477.38;;;26.28
67515;BMP280;60646;55.802;37.032;2022-08-19T05:55:38;100461.50;;;26.26
67515;BMP280;60646;55.802;37.032;2022-08-19T05:58:04;100475.94;;;26.37
67515;BMP280;60646;55.802;37.032;2022-08-19T06:00:34;100456.88;;;26.39
67515;BMP280;60646;55.802;37.032;2022-08-19T06:03:00;100456.44;;;26.42
67515;BMP280;60646;55.802;37.032;2022-08-19T06:05:31;100477.63;;;26.61
67515;BMP280;60646;55.802;37.032;2022-08-19T06:07:57;100483.38;;;26.65
67515;BMP280;60646;55.802;37.032;2022-08-19T06:10:25;100487.97;;;26.72
67515;BMP280;60646;55.802;37.032;2022-08-19T06:12:52;100476.59;;;26.75
67515;BMP280;60646;55.802;37.032;2022-08-19T06:15:18;100471.25;;;26.68
67515;BMP280;60646;55.802;37.032;2022-08-19T06:17:44;100480.19;;;26.78
67515;BMP280;60646;55.802;37.032;2022-08-19T06:20:12;100483.63;;;26.88
67515;BMP280;60646;55.802;37.032;2022-08-19T06:22:44;100478.00;;;26.86
67515;BMP280;60646;55.802;37.032;2022-08-19T06:25:10;100485.13;;;27.10
67515;BMP280;60646;55.802;37.032;2022-08-19T06:27:37;100488.78;;;27.03
67515;BMP280;60646;55.802;37.032;2022-08-19T06:30:04;100481.81;;;27.02
67515;BMP280;60646;55.802;37.032;2022-08-19T06:32:30;100473.47;;;27.00
67515;BMP280;60646;55.802;37.032;2022-08-19T06:34:56;100482.38;;;27.10
67515;BMP280;60646;55.802;37.032;2022-08-19T06:37:22;100475.72;;;27.13
67515;BMP280;60646;55.802;37.032;2022-08-19T06:39:48;100486.50;;;27.20
67515;BMP280;60646;55.802;37.032;2022-08-19T06:42:14;100484.63;;;27.23
67515;BMP280;60646;55.802;37.032;2022-08-19T06:44:43;100485.69;;;27.39
67515;BMP280;60646;55.802;37.032;2022-08-19T06:47:12;100490.28;;;27.46
67515;BMP280;60646;55.802;37.032;2022-08-19T06:49:38;100476.16;;;27.40
67515;BMP280;60646;55.802;37.032;2022-08-19T06:52:04;100475.25;;;27.47
67515;BMP280;60646;55.802;37.032;2022-08-19T06:54:30;100480.84;;;27.49
67515;BMP280;60646;55.802;37.032;2022-08-19T06:57:00;100490.91;;;27.66
67515;BMP280;60646;55.802;37.032;2022-08-19T06:59:30;100491.72;;;27.68
67515;BMP280;60646;55.802;37.032;2022-08-19T07:01:57;100482.19;;;27.69
67515;BMP280;60646;55.802;37.032;2022-08-19T07:04:27;100488.09;;;27.75
67515;BMP280;60646;55.802;37.032;2022-08-19T07:06:58;100490.88;;;27.87
67515;BMP280;60646;55.802;37.032;2022-08-19T07:09:25;100476.75;;;27.81
67515;BMP280;60646;55.802;37.032;2022-08-19T07:11:52;100480.34;;;27.83
67515;BMP280;60646;55.802;37.032;2022-08-19T07:14:22;100474.97;;;27.85
67515;BMP280;60646;55.802;37.032;2022-08-19T07:16:50;100478.84;;;27.92
67515;BMP280;60646;55.802;37.032;2022-08-19T07:19:18;100487.13;;;28.03
67515;BMP280;60646;55.802;37.032;2022-08-19T07:21:43;100484.13;;;27.99
67515;BMP280;60646;55.802;37.032;2022-08-19T07:24:09;100482.97;;;28.02
67515;BMP280;60646;55.802;37.032;2022-08-19T07:26:41;100485.59;;;28.12
67515;BMP280;60646;55.802;37.032;2022-08-19T07:29:27;100493.06;;;28.21
67515;BMP280;60646;55.802;37.032;2022-08-19T07:31:53;100490.16;;;28.19
67515;BMP280;60646;55.802;37.032;2022-08-19T07:34:23;100500.50;;;28.30
67515;BMP280;60646;55.802;37.032;2022-08-19T07:36:49;100490.09;;;28.28
67515;BMP280;60646;55.802;37.032;2022-08-19T07:39:19;100499.09;;;28.41
67515;BMP280;60646;55.802;37.032;2022-08-19T07:41:46;100482.81;;;28.33
67515;BMP280;60646;55.802;37.032;2022-08-19T07:44:13;100495.28;;;28.46
67515;BMP280;60646;55.802;37.032;2022-08-19T07:46:42;100494.78;;;28.49
67515;BMP280;60646;55.802;37.032;2022-08-19T07:49:10;100491.47;;;28.51
67515;BMP280;60646;55.802;37.032;2022-08-19T07:51:44;100505.81;;;28.61
67515;BMP280;60646;55.802;37.032;2022-08-19T07:54:10;100504.75;;;28.66
67515;BMP280;60646;55.802;37.032;2022-08-19T07:56:37;100497.22;;;28.66
67515;BMP280;60646;55.802;37.032;2022-08-19T07:59:03;100502.38;;;28.72
67515;BMP280;60646;55.802;37.032;2022-08-19T08:01:28;100507.28;;;28.85
67515;BMP280;60646;55.802;37.032;2022-08-19T08:03:55;100505.03;;;28.93
67515;BMP280;60646;55.802;37.032;2022-08-19T08:06:40;100501.09;;;28.96
67515;BMP280;60646;55.802;37.032;2022-08-19T08:09:34;100517.25;;;29.13
67515;BMP280;60646;55.802;37.032;2022-08-19T08:12:05;100500.94;;;29.17
67515;BMP280;60646;55.802;37.032;2022-08-19T08:14:38;100497.72;;;29.20
67515;BMP280;60646;55.802;37.032;2022-08-19T08:17:05;100513.03;;;29.35
67515;BMP280;60646;55.802;37.032;2022-08-19T08:19:31;100497.59;;;29.41
67515;BMP280;60646;55.802;37.032;2022-08-19T08:21:59;100513.84;;;29.49
67515;BMP280;60646;55.802;37.032;2022-08-19T08:24:26;100510.09;;;29.56
67515;BMP280;60646;55.802;37.032;2022-08-19T08:26:53;100496.94;;;29.55
67515;BMP280;60646;55.802;37.032;2022-08-19T08:29:19;100496.34;;;29.56
67515;BMP280;60646;55.802;37.032;2022-08-19T08:31:45;100500.88;;;29.63
67515;BMP280;60646;55.802;37.032;2022-08-19T08:34:13;100497.13;;;29.70
67515;BMP280;60646;55.802;37.032;2022-08-19T08:36:42;100484.91;;;29.73
67515;BMP280;60646;55.802;37.032;2022-08-19T08:39:09;100507.69;;;29.74
67515;BMP280;60646;55.802;37.032;2022-08-19T08:41:44;100509.88;;;29.89
67515;BMP280;60646;55.802;37.032;2022-08-19T08:44:18;100497.44;;;29.88
67515;BMP280;60646;55.802;37.032;2022-08-19T08:46:53;100498.94;;;30.02
67515;BMP280;60646;55.802;37.032;2022-08-19T08:52:21;100485.53;;;29.97
67515;BMP280;60646;55.802;37.032;2022-08-19T08:54:49;100491.75;;;29.97
67515;BMP280;60646;55.802;37.032;2022-08-19T08:57:21;100495.66;;;30.06
67515;BMP280;60646;55.802;37.032;2022-08-19T08:59:50;100496.88;;;30.03
67515;BMP280;60646;55.802;37.032;2022-08-19T09:02:18;100493.19;;;29.98
67515;BMP280;60646;55.802;37.032;2022-08-19T09:04:44;100507.09;;;30.00
67515;BMP280;60646;55.802;37.032;2022-08-19T09:07:27;100495.59;;;29.92
67515;BMP280;60646;55.802;37.032;2022-08-19T09:15:11;100499.00;;;29.91
67515;BMP280;60646;55.802;37.032;2022-08-19T09:17:37;100498.03;;;29.86
67515;BMP280;60646;55.802;37.032;2022-08-19T09:22:37;100512.41;;;29.96
67515;BMP280;60646;55.802;37.032;2022-08-19T09:25:06;100515.16;;;29.96
67515;BMP280;60646;55.802;37.032;2022-08-19T09:27:32;100502.94;;;29.88
67515;BMP280;60646;55.802;37.032;2022-08-19T09:29:58;100494.19;;;29.91
67515;BMP280;60646;55.802;37.032;2022-08-19T09:32:24;100507.53;;;30.08
67515;BMP280;60646;55.802;37.032;2022-08-19T09:34:51;100507.75;;;30.12
67515;BMP280;60646;55.802;37.032;2022-08-19T09:37:21;100491.44;;;30.16
67515;BMP280;60646;55.802;37.032;2022-08-19T09:39:47;100503.22;;;30.30
67515;BMP280;60646;55.802;37.032;2022-08-19T09:42:13;100491.28;;;30.39
67515;BMP280;60646;55.802;37.032;2022-08-19T09:44:40;100510.84;;;30.57
67515;BMP280;60646;55.802;37.032;2022-08-19T09:47:08;100488.75;;;30.57
67515;BMP280;60646;55.802;37.032;2022-08-19T09:49:33;100499.72;;;30.69
67515;BMP280;60646;55.802;37.032;2022-08-19T09:51:59;100489.09;;;30.77
67515;BMP280;60646;55.802;37.032;2022-08-19T09:54:26;100497.38;;;30.90
67515;BMP280;60646;55.802;37.032;2022-08-19T09:56:53;100505.03;;;30.92
67515;BMP280;60646;55.802;37.032;2022-08-19T09:59:19;100490.63;;;30.93
67515;BMP280;60646;55.802;37.032;2022-08-19T10:01:44;100502.59;;;30.98
67515;BMP280;60646;55.802;37.032;2022-08-19T10:04:10;100488.91;;;31.00
67515;BMP280;60646;55.802;37.032;2022-08-19T10:06:38;100499.13;;;31.11
67515;BMP280;60646;55.802;37.032;2022-08-19T10:09:07;100510.16;;;31.11
67515;BMP280;60646;55.802;37.032;2022-08-19T10:11:34;100505.34;;;31.11
67515;BMP280;60646;55.802;37.032;2022-08-19T10:14:01;100486.63;;;31.10
67515;BMP280;60646;55.802;37.032;2022-08-19T10:16:28;100498.09;;;31.18
67515;BMP280;60646;55.802;37.032;2022-08-19T10:18:54;100488.25;;;31.15
67515;BMP280;60646;55.802;37.032;2022-08-19T10:21:27;100506.13;;;31.27
67515;BMP280;60646;55.802;37.032;2022-08-19T10:23:56;100499.09;;;31.24
67515;BMP280;60646;55.802;37.032;2022-08-19T10:26:26;100492.97;;;31.26
67515;BMP280;60646;55.802;37.032;2022-08-19T10:28:52;100507.06;;;31.32
67515;BMP280;60646;55.802;37.032;2022-08-19T10:31:21;100510.66;;;31.34
67515;BMP280;60646;55.802;37.032;2022-08-19T10:34:06;100498.88;;;31.34
67515;BMP280;60646;55.802;37.032;2022-08-19T10:36:34;100498.47;;;31.39
67515;BMP280;60646;55.802;37.032;2022-08-19T10:39:07;100508.88;;;31.41
67515;BMP280;60646;55.802;37.032;2022-08-19T10:41:36;100510.13;;;31.38
67515;BMP280;60646;55.802;37.032;2022-08-19T10:44:07;100517.47;;;31.47
67515;BMP280;60646;55.802;37.032;2022-08-19T10:46:37;100518.97;;;31.50
67515;BMP280;60646;55.802;37.032;2022-08-19T10:49:04;100493.44;;;31.36
67515;BMP280;60646;55.802;37.032;2022-08-19T10:51:31;100500.72;;;31.43
67515;BMP280;60646;55.802;37.032;2022-08-19T10:54:15;100502.34;;;31.48
67515;BMP280;60646;55.802;37.032;2022-08-19T10:56:41;100505.88;;;31.50
67515;BMP280;60646;55.802;37.032;2022-08-19T10:59:27;100508.25;;;31.56
67515;BMP280;60646;55.802;37.032;2022-08-19T11:01:54;100520.41;;;31.64
67515;BMP280;60646;55.802;37.032;2022-08-19T11:04:20;100512.94;;;31.67
67515;BMP280;60646;55.802;37.032;2022-08-19T11:06:48;100503.09;;;31.64
67515;BMP280;60646;55.802;37.032;2022-08-19T11:09:17;100516.06;;;31.75
67515;BMP280;60646;55.802;37.032;2022-08-19T11:11:43;100509.09;;;31.74
67515;BMP280;60646;55.802;37.032;2022-08-19T11:14:12;100507.16;;;31.76
67515;BMP280;60646;55.802;37.032;2022-08-19T11:16:40;100501.09;;;31.80
67515;BMP280;60646;55.802;37.032;2022-08-19T11:19:08;100503.88;;;31.80
67515;BMP280;60646;55.802;37.032;2022-08-19T11:21:37;100503.94;;;31.82
67515;BMP280;60646;55.802;37.032;2022-08-19T11:24:09;100502.53;;;31.81
67515;BMP280;60646;55.802;37.032;2022-08-19T11:26:36;100502.41;;;31.79
67515;BMP280;60646;55.802;37.032;2022-08-19T11:29:04;100500.81;;;31.74
67515;BMP280;60646;55.802;37.032;2022-08-19T11:31:34;100502.41;;;31.79
67515;BMP280;60646;55.802;37.032;2022-08-19T11:34:05;100510.63;;;31.77
67515;BMP280;60646;55.802;37.032;2022-08-19T11:36:31;100495.53;;;31.64
67515;BMP280;60646;55.802;37.032;2022-08-19T11:39:01;100487.75;;;31.61
67515;BMP280;60646;55.802;37.032;2022-08-19T11:41:27;100482.22;;;31.61
67515;BMP280;60646;55.802;37.032;2022-08-19T11:43:53;100482.03;;;31.57
67515;BMP280;60646;55.802;37.032;2022-08-19T11:46:21;100495.53;;;31.64
67515;BMP280;60646;55.802;37.032;2022-08-19T11:48:48;100504.50;;;31.65
67515;BMP280;60646;55.802;37.032;2022-08-19T11:51:19;100485.09;;;31.63
67515;BMP280;60646;55.802;37.032;2022-08-19T11:53:46;100484.09;;;31.56
67515;BMP280;60646;55.802;37.032;2022-08-19T11:56:30;100492.97;;;31.55
67515;BMP280;60646;55.802;37.032;2022-08-19T11:58:56;100501.75;;;31.65
67515;BMP280;60646;55.802;37.032;2022-08-19T12:01:24;100501.66;;;31.63
67515;BMP280;60646;55.802;37.032;2022-08-19T12:03:51;100504.44;;;31.63
67515;BMP280;60646;55.802;37.032;2022-08-19T12:06:20;100507.56;;;31.71
67515;BMP280;60646;55.802;37.032;2022-08-19T12:08:49;100500.44;;;31.66
67515;BMP280;60646;55.802;37.032;2022-08-19T12:11:15;100499.88;;;31.54
67515;BMP280;60646;55.802;37.032;2022-08-19T12:13:41;100510.03;;;31.65
67515;BMP280;60646;55.802;37.032;2022-08-19T12:16:12;100504.72;;;31.69
67515;BMP280;60646;55.802;37.032;2022-08-19T12:18:39;100505.22;;;31.65
67515;BMP280;60646;55.802;37.032;2022-08-19T12:21:08;100502.88;;;31.60
67515;BMP280;60646;55.802;37.032;2022-08-19T12:23:35;100495.53;;;31.64
67515;BMP280;60646;55.802;37.032;2022-08-19T12:26:03;100494.72;;;31.62
67515;BMP280;60646;55.802;37.032;2022-08-19T12:28:29;100496.16;;;31.63
67515;BMP280;60646;55.802;37.032;2022-08-19T12:30:56;100489.38;;;31.66
67515;BMP280;60646;55.802;37.032;2022-08-19T12:33:22;100499.56;;;31.77
67515;BMP280;60646;55.802;37.032;2022-08-19T12:35:51;100496.09;;;31.76
67515;BMP280;60646;55.802;37.032;2022-08-19T12:38:17;100492.28;;;31.83
67515;BMP280;60646;55.802;37.032;2022-08-19T12:40:48;100486.13;;;31.85
67515;BMP280;60646;55.802;37.032;2022-08-19T12:43:15;100472.81;;;31.81
67515;BMP280;60646;55.802;37.032;2022-08-19T12:45:45;100482.13;;;31.88
67515;BMP280;60646;55.802;37.032;2022-08-19T12:48:12;100474.63;;;31.91
67515;BMP280;60646;55.802;37.032;2022-08-19T12:50:43;100474.28;;;31.98
67515;BMP280;60646;55.802;37.032;2022-08-19T12:53:13;100477.13;;;32.00
67515;BMP280;60646;55.802;37.032;2022-08-19T12:55:38;100478.56;;;32.01
67515;BMP280;60646;55.802;37.032;2022-08-19T12:58:04;100490.00;;;32.09
67515;BMP280;60646;55.802;37.032;2022-08-19T13:00:30;100477.53;;;32.08
67515;BMP280;60646;55.802;37.032;2022-08-19T13:02:59;100485.91;;;32.10
67515;BMP280;60646;55.802;37.032;2022-08-19T13:05:31;100495.91;;;32.17
67515;BMP280;60646;55.802;37.032;2022-08-19T13:08:15;100495.03;;;32.13
67515;BMP280;60646;55.802;37.032;2022-08-19T13:10:42;100487.69;;;32.19
67515;BMP280;60646;55.802;37.032;2022-08-19T13:13:08;100503.03;;;32.22
67515;BMP280;60646;55.802;37.032;2022-08-19T13:15:38;100505.81;;;32.22
67515;BMP280;60646;55.802;37.032;2022-08-19T13:18:09;100500.19;;;32.20
67515;BMP280;60646;55.802;37.032;2022-08-19T13:20:37;100505.81;;;32.22
67515;BMP280;60646;55.802;37.032;2022-08-19T13:23:04;100500.63;;;32.15
67515;BMP280;60646;55.802;37.032;2022-08-19T13:25:30;100491.88;;;32.05
67515;BMP280;60646;55.802;37.032;2022-08-19T13:27:56;100504.44;;;32.08
67515;BMP280;60646;55.802;37.032;2022-08-19T13:30:21;100491.25;;;32.06
67515;BMP280;60646;55.802;37.032;2022-08-19T13:33:07;100500.06;;;32.03
67515;BMP280;60646;55.802;37.032;2022-08-19T13:35:37;100487.81;;;31.92
67515;BMP280;60646;55.802;37.032;2022-08-19T13:38:03;100493.19;;;31.88
67515;BMP280;60646;55.802;37.032;2022-08-19T13:40:31;100502.47;;;31.95
67515;BMP280;60646;55.802;37.032;2022-08-19T13:42:59;100504.34;;;31.90
67515;BMP280;60646;55.802;37.032;2022-08-19T13:45:27;100497.19;;;31.85
67515;BMP280;60646;55.802;37.032;2022-08-19T13:47:55;100499.75;;;31.81
67515;BMP280;60646;55.802;37.032;2022-08-19T13:50:28;100487.72;;;31.74
67515;BMP280;60646;55.802;37.032;2022-08-19T13:52:55;100492.94;;;31.68
67515;BMP280;60646;55.802;37.032;2022-08-19T13:55:22;100508.38;;;31.73
67515;BMP280;60646;55.802;37.032;2022-08-19T13:57:55;100505.38;;;31.67
67515;BMP280;60646;55.802;37.032;2022-08-19T14:00:27;100512.22;;;31.66
67515;BMP280;60646;55.802;37.032;2022-08-19T14:02:55;100505.16;;;31.50
67515;BMP280;60646;55.802;37.032;2022-08-19T14:05:21;100523.19;;;31.51
67515;BMP280;60646;55.802;37.032;2022-08-19T14:07:47;100510.81;;;31.38
67515;BMP280;60646;55.802;37.032;2022-08-19T14:10:14;100513.59;;;31.38